°F
^^
Station Historical Data
 
Daily Summary for December 17, 2017 Units:  English    Metric   Both
« Previous Day
Next Day »
Daily Weekly Monthly Yearly Custom
  Current: High: Low: Average:
Temperature: 6.3 °F 11.4 °F 6.3 °F 8.6 °F
Dew Point: 3.3 °F 9.0 °F 3.3 °F 6 °F
Humidity: 87% 92% 87% 89%
Wind Speed: 0.0mph 2.3mph 0.0mph 0.4mph
Wind Gust: 0.0mph 2.3mph - -
WindCalm - - South
Pressure: 30.28 in 30.28 in 30.24 in -
Precipitation: 0.00 in      
Historical Graphs
 
 
Tabular Data for December 17, 2017
Time Temperature Dew Point Pressure Wind Wind Speed Wind Gust Humidity Rainfall Rate (Hourly) solar Conditions
00:00 11.4 °F 9.0 °F 30.24 in Calm     90% 0.00 in WeatherDisplay:10.37 W/m2 CLR
00:04 11.0 °F 8.4 °F 30.24 in SSW 1.2 mph 1.2 mph 89% 0.00 in WeatherDisplay:10.37 W/m2 CLR
00:07 10.7 °F 8.1 °F 30.24 in SSW 2.2 mph 2.2 mph 89% 0.00 in WeatherDisplay:10.37 W/m2 CLR
00:11 10.4 °F 7.8 °F 30.24 in SSE 2.3 mph 2.3 mph 89% 0.00 in WeatherDisplay:10.37 W/m2 CLR
00:13 10.2 °F 7.6 °F 30.24 in SSE 1.2 mph 1.2 mph 89% 0.00 in WeatherDisplay:10.37 W/m2 CLR
00:17 10.1 °F 7.5 °F 30.24 in SSE 1.2 mph 1.2 mph 89% 0.00 in WeatherDisplay:10.37 W/m2 CLR
00:22 9.9 °F 7.3 °F 30.24 in SSE 1.2 mph 1.2 mph 89% 0.00 in WeatherDisplay:10.37 W/m2 CLR
00:27 9.9 °F 7.6 °F 30.24 in Calm     90% 0.00 in WeatherDisplay:10.37 W/m2 CLR
00:29 9.9 °F 7.3 °F 30.24 in SSW 1.2 mph 1.2 mph 89% 0.00 in WeatherDisplay:10.37 W/m2 CLR
00:34 9.7 °F 7.1 °F 30.24 in South 2.2 mph 2.2 mph 89% 0.00 in WeatherDisplay:10.37 W/m2 CLR
00:36 9.6 °F 7.0 °F 30.24 in South 1.2 mph 1.2 mph 89% 0.00 in WeatherDisplay:10.37 W/m2 CLR
00:39 9.5 °F 6.9 °F 30.24 in Calm     89% 0.00 in WeatherDisplay:10.37 W/m2 CLR
00:42 9.4 °F 6.8 °F 30.24 in Calm     89% 0.00 in WeatherDisplay:10.37 W/m2 CLR
00:46 9.2 °F 6.6 °F 30.24 in SW 1.2 mph 1.2 mph 89% 0.00 in WeatherDisplay:10.37 W/m2 CLR
00:51 9.1 °F 6.5 °F 30.25 in Calm     89% 0.00 in WeatherDisplay:10.37 W/m2 CLR
00:52 9.1 °F 6.5 °F 30.25 in Calm     89% 0.00 in WeatherDisplay:10.37 W/m2 CLR
00:57 9.1 °F 6.5 °F 30.25 in South 1.2 mph 1.2 mph 89% 0.00 in WeatherDisplay:10.37 W/m2 CLR
01:02 8.8 °F 6.2 °F 30.25 in South 1.2 mph 1.2 mph 89% 0.00 in WeatherDisplay:10.37 W/m2 CLR
01:03 8.8 °F 6.2 °F 30.25 in SW 1.2 mph 1.2 mph 89% 0.00 in WeatherDisplay:10.37 W/m2 CLR
01:04 8.7 °F 6.1 °F 30.25 in Calm   0.1 mph 89% 0.00 in WeatherDisplay:10.37 W/m2 CLR
01:09 8.5 °F 5.9 °F 30.25 in SSW 1.2 mph 1.2 mph 89% 0.00 in WeatherDisplay:10.37 W/m2 CLR
01:10 8.5 °F 5.9 °F 30.25 in Calm   1.0 mph 89% 0.00 in WeatherDisplay:10.37 W/m2 CLR
01:15 8.4 °F 5.8 °F 30.25 in South 1.2 mph 1.2 mph 89% 0.00 in WeatherDisplay:10.37 W/m2 CLR
01:16 8.4 °F 5.8 °F 30.25 in Calm   0.3 mph 89% 0.00 in WeatherDisplay:10.37 W/m2 CLR
01:18 8.4 °F 5.8 °F 30.25 in SSW 1.2 mph   89% 0.00 in WeatherDisplay:10.37 W/m2 CLR
01:22 8.3 °F 5.7 °F 30.25 in Calm     89% 0.00 in WeatherDisplay:10.37 W/m2 CLR
01:24 8.2 °F 5.6 °F 30.25 in Calm     89% 0.00 in WeatherDisplay:10.37 W/m2 CLR
01:29 8.1 °F 5.5 °F 30.25 in Calm     89% 0.00 in WeatherDisplay:10.37 W/m2 CLR
01:30 8.1 °F 5.5 °F 30.25 in Calm     89% 0.00 in WeatherDisplay:10.37 W/m2 CLR
01:32 8.0 °F 5.4 °F 30.25 in Calm     89% 0.00 in WeatherDisplay:10.37 W/m2 CLR
01:35 8.0 °F 5.4 °F 30.25 in Calm   0.4 mph 89% 0.00 in WeatherDisplay:10.37 W/m2 CLR
01:39 8.0 °F 5.4 °F 30.25 in SW 1.2 mph 1.2 mph 89% 0.00 in WeatherDisplay:10.37 W/m2 CLR
01:40 8.1 °F 5.5 °F 30.25 in Calm     89% 0.00 in WeatherDisplay:10.37 W/m2 CLR
01:45 8.1 °F 5.5 °F 30.26 in Calm     89% 0.00 in WeatherDisplay:10.37 W/m2 CLR
01:48 8.1 °F 5.5 °F 30.26 in Calm     89% 0.00 in WeatherDisplay:10.37 W/m2 CLR
01:53 8.0 °F 5.4 °F 30.26 in Calm     89% 0.00 in WeatherDisplay:10.37 W/m2 CLR
01:58 7.9 °F 5.3 °F 30.26 in Calm     89% 0.00 in WeatherDisplay:10.37 W/m2 CLR
02:03 8.1 °F 5.8 °F 30.26 in Calm     90% 0.00 in WeatherDisplay:10.37 W/m2 CLR
02:05 8.0 °F 5.4 °F 30.26 in Calm     89% 0.00 in WeatherDisplay:10.37 W/m2 CLR
02:10 8.3 °F 6.0 °F 30.26 in Calm     90% 0.00 in WeatherDisplay:10.37 W/m2 CLR
02:11 8.4 °F 6.1 °F 30.26 in Calm     90% 0.00 in WeatherDisplay:10.37 W/m2 CLR
02:16 8.6 °F 6.3 °F 30.27 in Calm     90% 0.00 in WeatherDisplay:10.37 W/m2 CLR
02:21 8.4 °F 5.8 °F 30.27 in Calm     89% 0.00 in WeatherDisplay:10.37 W/m2 CLR
02:22 8.3 °F 5.7 °F 30.27 in Calm     89% 0.00 in WeatherDisplay:10.37 W/m2 CLR
02:27 7.9 °F 5.3 °F 30.27 in Calm     89% 0.00 in WeatherDisplay:10.37 W/m2 CLR
02:29 7.8 °F 5.2 °F 30.27 in Calm     89% 0.00 in WeatherDisplay:10.37 W/m2 CLR
02:32 7.5 °F 4.7 °F 30.27 in Calm     88% 0.00 in WeatherDisplay:10.37 W/m2 CLR
02:35 7.4 °F 4.6 °F 30.27 in Calm     88% 0.00 in WeatherDisplay:10.37 W/m2 CLR
02:40 7.3 °F 4.7 °F 30.27 in Calm     89% 0.00 in WeatherDisplay:10.37 W/m2 CLR
02:45 8.6 °F 6.8 °F 30.28 in Calm     92% 0.00 in WeatherDisplay:10.37 W/m2 CLR
02:46 8.5 °F 6.4 °F 30.28 in Calm     91% 0.00 in WeatherDisplay:10.37 W/m2 CLR
02:51 7.3 °F 4.2 °F 30.28 in Calm     87% 0.00 in WeatherDisplay:10.37 W/m2 CLR
02:52 7.3 °F 4.2 °F 30.28 in Calm     87% 0.00 in WeatherDisplay:10.37 W/m2 CLR
02:57 6.4 °F 3.4 °F 30.28 in Calm     87% 0.00 in WeatherDisplay:10.37 W/m2 CLR
02:58 6.3 °F 3.3 °F 30.28 in Calm     87% 0.00 in WeatherDisplay:10.37 W/m2 CLR
Mohawk Valley, New York, USA
Compliments of Weather Underground - 1.75 mb